sensor_id;sensor_type;location;lat;lon;timestamp;P1;durP1;ratioP1;P2;durP2;ratioP2
16822;SDS011;8528;49.976;11.858;2022-11-09T00:00:51;7.40;;;5.17;;
16822;SDS011;8528;49.976;11.858;2022-11-09T00:03:18;6.77;;;4.97;;
16822;SDS011;8528;49.976;11.858;2022-11-09T00:05:56;7.93;;;5.30;;
16822;SDS011;8528;49.976;11.858;2022-11-09T00:08:24;6.17;;;4.83;;
16822;SDS011;8528;49.976;11.858;2022-11-09T00:10:52;7.23;;;4.47;;
16822;SDS011;8528;49.976;11.858;2022-11-09T00:13:19;5.90;;;4.13;;
16822;SDS011;8528;49.976;11.858;2022-11-09T00:15:48;6.80;;;4.50;;
16822;SDS011;8528;49.976;11.858;2022-11-09T00:18:14;5.43;;;4.40;;
16822;SDS011;8528;49.976;11.858;2022-11-09T00:20:41;4.93;;;4.43;;
16822;SDS011;8528;49.976;11.858;2022-11-09T00:23:13;7.10;;;4.40;;
16822;SDS011;8528;49.976;11.858;2022-11-09T00:25:42;5.73;;;4.50;;
16822;SDS011;8528;49.976;11.858;2022-11-09T00:28:09;5.03;;;4.33;;
16822;SDS011;8528;49.976;11.858;2022-11-09T00:30:36;6.77;;;4.63;;
16822;SDS011;8528;49.976;11.858;2022-11-09T00:33:02;5.60;;;4.33;;
16822;SDS011;8528;49.976;11.858;2022-11-09T00:35:29;7.20;;;4.90;;
16822;SDS011;8528;49.976;11.858;2022-11-09T00:38:00;5.67;;;4.50;;
16822;SDS011;8528;49.976;11.858;2022-11-09T00:40:34;5.50;;;4.63;;
16822;SDS011;8528;49.976;11.858;2022-11-09T00:43:01;6.50;;;4.80;;
16822;SDS011;8528;49.976;11.858;2022-11-09T00:45:28;5.37;;;4.27;;
16822;SDS011;8528;49.976;11.858;2022-11-09T00:47:55;6.70;;;4.37;;
16822;SDS011;8528;49.976;11.858;2022-11-09T00:50:24;5.20;;;4.10;;
16822;SDS011;8528;49.976;11.858;2022-11-09T00:52:52;5.30;;;4.27;;
16822;SDS011;8528;49.976;11.858;2022-11-09T00:55:19;6.27;;;4.77;;
16822;SDS011;8528;49.976;11.858;2022-11-09T00:57:49;5.77;;;4.50;;
16822;SDS011;8528;49.976;11.858;2022-11-09T01:00:18;5.70;;;4.40;;
16822;SDS011;8528;49.976;11.858;2022-11-09T01:02:56;5.90;;;4.50;;
16822;SDS011;8528;49.976;11.858;2022-11-09T01:05:23;9.17;;;4.63;;
16822;SDS011;8528;49.976;11.858;2022-11-09T01:07:50;5.53;;;4.43;;
16822;SDS011;8528;49.976;11.858;2022-11-09T01:10:17;5.93;;;4.20;;
16822;SDS011;8528;49.976;11.858;2022-11-09T01:12:44;6.00;;;4.30;;
16822;SDS011;8528;49.976;11.858;2022-11-09T01:15:10;4.53;;;3.97;;
16822;SDS011;8528;49.976;11.858;2022-11-09T01:17:37;5.40;;;3.87;;
16822;SDS011;8528;49.976;11.858;2022-11-09T01:20:05;4.40;;;3.90;;
16822;SDS011;8528;49.976;11.858;2022-11-09T01:22:32;4.87;;;3.73;;
16822;SDS011;8528;49.976;11.858;2022-11-09T01:24:58;4.83;;;4.20;;
16822;SDS011;8528;49.976;11.858;2022-11-09T01:27:25;5.93;;;3.83;;
16822;SDS011;8528;49.976;11.858;2022-11-09T01:29:52;6.53;;;4.70;;
16822;SDS011;8528;49.976;11.858;2022-11-09T01:32:19;5.03;;;3.90;;
16822;SDS011;8528;49.976;11.858;2022-11-09T01:34:46;10.80;;;4.60;;
16822;SDS011;8528;49.976;11.858;2022-11-09T01:37:13;5.20;;;4.17;;
16822;SDS011;8528;49.976;11.858;2022-11-09T01:39:39;5.20;;;4.33;;
16822;SDS011;8528;49.976;11.858;2022-11-09T01:42:06;4.97;;;3.90;;
16822;SDS011;8528;49.976;11.858;2022-11-09T01:44:34;5.17;;;4.10;;
16822;SDS011;8528;49.976;11.858;2022-11-09T01:47:11;7.80;;;5.03;;
16822;SDS011;8528;49.976;11.858;2022-11-09T01:52:20;5.40;;;4.33;;
16822;SDS011;8528;49.976;11.858;2022-11-09T01:54:52;7.07;;;4.73;;
16822;SDS011;8528;49.976;11.858;2022-11-09T01:57:29;5.97;;;4.17;;
16822;SDS011;8528;49.976;11.858;2022-11-09T02:00:14;6.03;;;4.00;;
16822;SDS011;8528;49.976;11.858;2022-11-09T02:02:43;4.43;;;3.93;;
16822;SDS011;8528;49.976;11.858;2022-11-09T02:05:16;4.13;;;3.73;;
16822;SDS011;8528;49.976;11.858;2022-11-09T02:07:47;5.10;;;4.17;;
16822;SDS011;8528;49.976;11.858;2022-11-09T02:13:00;6.73;;;4.80;;
16822;SDS011;8528;49.976;11.858;2022-11-09T02:15:27;4.83;;;4.20;;
16822;SDS011;8528;49.976;11.858;2022-11-09T02:17:56;4.77;;;3.80;;
16822;SDS011;8528;49.976;11.858;2022-11-09T02:20:23;7.10;;;4.50;;
16822;SDS011;8528;49.976;11.858;2022-11-09T02:22:51;4.80;;;3.80;;
16822;SDS011;8528;49.976;11.858;2022-11-09T02:25:17;5.80;;;3.87;;
16822;SDS011;8528;49.976;11.858;2022-11-09T02:27:45;4.97;;;4.10;;
16822;SDS011;8528;49.976;11.858;2022-11-09T02:30:12;5.03;;;3.97;;
16822;SDS011;8528;49.976;11.858;2022-11-09T02:32:40;5.73;;;3.80;;
16822;SDS011;8528;49.976;11.858;2022-11-09T02:35:08;5.83;;;4.47;;
16822;SDS011;8528;49.976;11.858;2022-11-09T02:37:41;6.67;;;4.60;;
16822;SDS011;8528;49.976;11.858;2022-11-09T02:40:22;8.23;;;4.40;;
16822;SDS011;8528;49.976;11.858;2022-11-09T02:42:53;8.87;;;4.70;;
16822;SDS011;8528;49.976;11.858;2022-11-09T02:45:21;5.87;;;4.40;;
16822;SDS011;8528;49.976;11.858;2022-11-09T02:47:48;7.30;;;4.40;;
16822;SDS011;8528;49.976;11.858;2022-11-09T02:50:15;4.70;;;3.87;;
16822;SDS011;8528;49.976;11.858;2022-11-09T02:52:41;6.47;;;4.60;;
16822;SDS011;8528;49.976;11.858;2022-11-09T02:55:08;6.60;;;4.30;;
16822;SDS011;8528;49.976;11.858;2022-11-09T02:57:35;6.37;;;4.20;;
16822;SDS011;8528;49.976;11.858;2022-11-09T03:00:04;5.87;;;4.23;;
16822;SDS011;8528;49.976;11.858;2022-11-09T03:02:32;6.23;;;3.90;;
16822;SDS011;8528;49.976;11.858;2022-11-09T03:04:59;4.57;;;3.87;;
16822;SDS011;8528;49.976;11.858;2022-11-09T03:07:25;4.70;;;3.70;;
16822;SDS011;8528;49.976;11.858;2022-11-09T03:09:52;4.17;;;3.47;;
16822;SDS011;8528;49.976;11.858;2022-11-09T03:12:19;4.43;;;3.67;;
16822;SDS011;8528;49.976;11.858;2022-11-09T03:17:26;4.63;;;3.83;;
16822;SDS011;8528;49.976;11.858;2022-11-09T03:19:54;6.40;;;4.07;;
16822;SDS011;8528;49.976;11.858;2022-11-09T03:22:21;4.67;;;3.83;;
16822;SDS011;8528;49.976;11.858;2022-11-09T03:24:48;5.70;;;4.10;;
16822;SDS011;8528;49.976;11.858;2022-11-09T03:27:15;7.87;;;4.43;;
16822;SDS011;8528;49.976;11.858;2022-11-09T03:29:42;5.57;;;4.70;;
16822;SDS011;8528;49.976;11.858;2022-11-09T03:32:10;8.17;;;4.97;;
16822;SDS011;8528;49.976;11.858;2022-11-09T03:34:37;6.80;;;4.33;;
16822;SDS011;8528;49.976;11.858;2022-11-09T03:37:05;6.57;;;4.33;;
16822;SDS011;8528;49.976;11.858;2022-11-09T03:39:32;4.47;;;3.97;;
16822;SDS011;8528;49.976;11.858;2022-11-09T03:41:59;7.27;;;4.00;;
16822;SDS011;8528;49.976;11.858;2022-11-09T03:44:26;9.07;;;4.17;;
16822;SDS011;8528;49.976;11.858;2022-11-09T03:46:55;12.87;;;4.50;;
16822;SDS011;8528;49.976;11.858;2022-11-09T03:49:22;6.20;;;4.47;;
16822;SDS011;8528;49.976;11.858;2022-11-09T03:51:51;6.60;;;4.83;;
16822;SDS011;8528;49.976;11.858;2022-11-09T03:54:18;5.40;;;4.10;;
16822;SDS011;8528;49.976;11.858;2022-11-09T03:56:45;7.80;;;4.83;;
16822;SDS011;8528;49.976;11.858;2022-11-09T03:59:12;6.37;;;3.97;;
16822;SDS011;8528;49.976;11.858;2022-11-09T04:01:39;5.43;;;4.27;;
16822;SDS011;8528;49.976;11.858;2022-11-09T04:04:05;5.17;;;4.27;;
16822;SDS011;8528;49.976;11.858;2022-11-09T04:06:32;5.13;;;4.47;;
16822;SDS011;8528;49.976;11.858;2022-11-09T04:09:00;5.67;;;3.93;;
16822;SDS011;8528;49.976;11.858;2022-11-09T04:11:26;6.33;;;4.40;;
16822;SDS011;8528;49.976;11.858;2022-11-09T04:13:55;6.23;;;4.20;;
16822;SDS011;8528;49.976;11.858;2022-11-09T04:16:23;5.87;;;4.63;;
16822;SDS011;8528;49.976;11.858;2022-11-09T04:18:50;5.07;;;4.57;;
16822;SDS011;8528;49.976;11.858;2022-11-09T04:21:17;5.43;;;4.10;;
16822;SDS011;8528;49.976;11.858;2022-11-09T04:23:49;5.53;;;4.07;;
16822;SDS011;8528;49.976;11.858;2022-11-09T04:26:16;6.93;;;4.40;;
16822;SDS011;8528;49.976;11.858;2022-11-09T04:28:44;4.90;;;4.27;;
16822;SDS011;8528;49.976;11.858;2022-11-09T04:31:11;6.80;;;5.07;;
16822;SDS011;8528;49.976;11.858;2022-11-09T04:33:38;8.97;;;4.57;;
16822;SDS011;8528;49.976;11.858;2022-11-09T04:36:05;8.07;;;4.90;;
16822;SDS011;8528;49.976;11.858;2022-11-09T04:38:33;4.10;;;3.70;;
16822;SDS011;8528;49.976;11.858;2022-11-09T04:41:02;5.63;;;3.93;;
16822;SDS011;8528;49.976;11.858;2022-11-09T04:43:29;5.30;;;3.67;;
16822;SDS011;8528;49.976;11.858;2022-11-09T04:45:59;5.03;;;3.80;;
16822;SDS011;8528;49.976;11.858;2022-11-09T04:48:26;5.97;;;3.80;;
16822;SDS011;8528;49.976;11.858;2022-11-09T04:51:12;4.17;;;3.70;;
16822;SDS011;8528;49.976;11.858;2022-11-09T04:53:39;5.87;;;4.00;;
16822;SDS011;8528;49.976;11.858;2022-11-09T04:56:06;4.90;;;4.00;;
16822;SDS011;8528;49.976;11.858;2022-11-09T04:58:33;5.13;;;4.60;;
16822;SDS011;8528;49.976;11.858;2022-11-09T05:01:02;7.57;;;4.80;;
16822;SDS011;8528;49.976;11.858;2022-11-09T05:03:33;6.20;;;4.73;;
16822;SDS011;8528;49.976;11.858;2022-11-09T05:06:00;7.83;;;5.73;;
16822;SDS011;8528;49.976;11.858;2022-11-09T05:08:47;6.23;;;5.33;;
16822;SDS011;8528;49.976;11.858;2022-11-09T05:11:15;5.87;;;4.23;;
16822;SDS011;8528;49.976;11.858;2022-11-09T05:13:42;6.77;;;4.13;;
16822;SDS011;8528;49.976;11.858;2022-11-09T05:16:09;5.43;;;4.60;;
16822;SDS011;8528;49.976;11.858;2022-11-09T05:18:36;6.67;;;4.33;;
16822;SDS011;8528;49.976;11.858;2022-11-09T05:21:03;6.50;;;4.97;;
16822;SDS011;8528;49.976;11.858;2022-11-09T05:23:30;5.03;;;4.00;;
16822;SDS011;8528;49.976;11.858;2022-11-09T05:26:15;6.40;;;5.03;;
16822;SDS011;8528;49.976;11.858;2022-11-09T05:28:42;6.63;;;4.80;;
16822;SDS011;8528;49.976;11.858;2022-11-09T05:31:10;5.33;;;4.73;;
16822;SDS011;8528;49.976;11.858;2022-11-09T05:33:37;6.10;;;4.80;;
16822;SDS011;8528;49.976;11.858;2022-11-09T05:36:03;7.40;;;5.00;;
16822;SDS011;8528;49.976;11.858;2022-11-09T05:38:30;6.60;;;4.67;;
16822;SDS011;8528;49.976;11.858;2022-11-09T05:40:58;4.60;;;4.03;;
16822;SDS011;8528;49.976;11.858;2022-11-09T05:43:24;5.97;;;4.83;;
16822;SDS011;8528;49.976;11.858;2022-11-09T05:45:51;6.60;;;5.43;;
16822;SDS011;8528;49.976;11.858;2022-11-09T05:48:18;6.77;;;5.33;;
16822;SDS011;8528;49.976;11.858;2022-11-09T05:50:45;6.00;;;5.00;;
16822;SDS011;8528;49.976;11.858;2022-11-09T05:53:13;7.10;;;5.33;;
16822;SDS011;8528;49.976;11.858;2022-11-09T05:55:40;9.27;;;6.07;;
16822;SDS011;8528;49.976;11.858;2022-11-09T05:58:07;10.33;;;7.07;;
16822;SDS011;8528;49.976;11.858;2022-11-09T06:00:34;10.83;;;7.27;;
16822;SDS011;8528;49.976;11.858;2022-11-09T06:03:08;9.63;;;7.30;;
16822;SDS011;8528;49.976;11.858;2022-11-09T06:05:39;13.93;;;8.77;;
16822;SDS011;8528;49.976;11.858;2022-11-09T06:08:07;12.10;;;8.20;;
16822;SDS011;8528;49.976;11.858;2022-11-09T06:10:36;13.90;;;8.47;;
16822;SDS011;8528;49.976;11.858;2022-11-09T06:13:05;13.50;;;8.47;;
16822;SDS011;8528;49.976;11.858;2022-11-09T06:15:33;14.17;;;8.93;;
16822;SDS011;8528;49.976;11.858;2022-11-09T06:18:00;12.10;;;8.17;;
16822;SDS011;8528;49.976;11.858;2022-11-09T06:20:27;11.60;;;7.70;;
16822;SDS011;8528;49.976;11.858;2022-11-09T06:23:03;9.47;;;7.27;;
16822;SDS011;8528;49.976;11.858;2022-11-09T06:25:31;9.73;;;7.13;;
16822;SDS011;8528;49.976;11.858;2022-11-09T06:27:59;9.60;;;7.33;;
16822;SDS011;8528;49.976;11.858;2022-11-09T06:30:27;10.50;;;6.70;;
16822;SDS011;8528;49.976;11.858;2022-11-09T06:32:58;9.63;;;7.33;;
16822;SDS011;8528;49.976;11.858;2022-11-09T06:35:28;12.17;;;7.10;;
16822;SDS011;8528;49.976;11.858;2022-11-09T06:37:56;9.97;;;7.23;;
16822;SDS011;8528;49.976;11.858;2022-11-09T06:40:24;10.27;;;7.80;;
16822;SDS011;8528;49.976;11.858;2022-11-09T06:42:51;10.07;;;8.13;;
16822;SDS011;8528;49.976;11.858;2022-11-09T06:45:18;10.83;;;7.23;;
16822;SDS011;8528;49.976;11.858;2022-11-09T06:47:45;9.73;;;7.63;;
16822;SDS011;8528;49.976;11.858;2022-11-09T06:50:11;11.97;;;8.00;;
16822;SDS011;8528;49.976;11.858;2022-11-09T06:52:38;12.13;;;8.17;;
16822;SDS011;8528;49.976;11.858;2022-11-09T06:55:06;10.93;;;8.73;;
16822;SDS011;8528;49.976;11.858;2022-11-09T06:57:33;9.90;;;7.57;;
16822;SDS011;8528;49.976;11.858;2022-11-09T07:00:00;11.17;;;7.13;;
16822;SDS011;8528;49.976;11.858;2022-11-09T07:02:27;9.87;;;6.70;;
16822;SDS011;8528;49.976;11.858;2022-11-09T07:04:54;10.27;;;7.60;;
16822;SDS011;8528;49.976;11.858;2022-11-09T07:07:21;11.60;;;7.90;;
16822;SDS011;8528;49.976;11.858;2022-11-09T07:09:53;10.77;;;8.00;;
16822;SDS011;8528;49.976;11.858;2022-11-09T07:12:21;10.37;;;7.20;;
16822;SDS011;8528;49.976;11.858;2022-11-09T07:14:48;12.37;;;8.40;;
16822;SDS011;8528;49.976;11.858;2022-11-09T07:17:15;14.10;;;8.93;;
16822;SDS011;8528;49.976;11.858;2022-11-09T07:19:42;14.87;;;9.60;;
16822;SDS011;8528;49.976;11.858;2022-11-09T07:22:09;11.83;;;9.17;;
16822;SDS011;8528;49.976;11.858;2022-11-09T07:24:35;17.13;;;10.10;;
16822;SDS011;8528;49.976;11.858;2022-11-09T07:27:03;13.13;;;9.43;;
16822;SDS011;8528;49.976;11.858;2022-11-09T07:29:30;13.67;;;9.50;;
16822;SDS011;8528;49.976;11.858;2022-11-09T07:31:56;19.23;;;11.27;;
16822;SDS011;8528;49.976;11.858;2022-11-09T07:34:23;16.37;;;10.87;;
16822;SDS011;8528;49.976;11.858;2022-11-09T07:36:54;19.00;;;12.03;;
16822;SDS011;8528;49.976;11.858;2022-11-09T07:39:21;16.33;;;11.27;;
16822;SDS011;8528;49.976;11.858;2022-11-09T07:41:48;17.10;;;10.57;;
16822;SDS011;8528;49.976;11.858;2022-11-09T07:44:15;22.40;;;15.43;;
16822;SDS011;8528;49.976;11.858;2022-11-09T07:46:45;20.43;;;13.20;;
16822;SDS011;8528;49.976;11.858;2022-11-09T07:49:14;14.43;;;10.20;;
16822;SDS011;8528;49.976;11.858;2022-11-09T07:51:41;13.20;;;9.87;;
16822;SDS011;8528;49.976;11.858;2022-11-09T07:54:12;13.63;;;9.53;;
16822;SDS011;8528;49.976;11.858;2022-11-09T07:56:39;14.03;;;10.67;;
16822;SDS011;8528;49.976;11.858;2022-11-09T07:59:13;17.63;;;11.97;;
16822;SDS011;8528;49.976;11.858;2022-11-09T08:01:40;17.43;;;14.03;;
16822;SDS011;8528;49.976;11.858;2022-11-09T08:04:07;15.27;;;10.90;;
16822;SDS011;8528;49.976;11.858;2022-11-09T08:06:34;12.53;;;10.47;;
16822;SDS011;8528;49.976;11.858;2022-11-09T08:09:01;15.23;;;12.03;;
16822;SDS011;8528;49.976;11.858;2022-11-09T08:11:28;12.50;;;9.73;;
16822;SDS011;8528;49.976;11.858;2022-11-09T08:13:55;12.83;;;9.93;;
16822;SDS011;8528;49.976;11.858;2022-11-09T08:16:23;14.53;;;10.37;;
16822;SDS011;8528;49.976;11.858;2022-11-09T08:18:50;14.20;;;10.83;;
16822;SDS011;8528;49.976;11.858;2022-11-09T08:21:18;14.00;;;12.20;;
16822;SDS011;8528;49.976;11.858;2022-11-09T08:23:47;16.33;;;13.43;;
16822;SDS011;8528;49.976;11.858;2022-11-09T08:26:13;14.77;;;12.20;;
16822;SDS011;8528;49.976;11.858;2022-11-09T08:28:40;19.03;;;13.63;;
16822;SDS011;8528;49.976;11.858;2022-11-09T08:31:08;31.00;;;14.90;;
16822;SDS011;8528;49.976;11.858;2022-11-09T08:33:36;13.87;;;10.93;;
16822;SDS011;8528;49.976;11.858;2022-11-09T08:36:09;31.07;;;14.13;;
16822;SDS011;8528;49.976;11.858;2022-11-09T08:38:38;18.63;;;11.80;;
16822;SDS011;8528;49.976;11.858;2022-11-09T08:41:05;31.27;;;13.70;;
16822;SDS011;8528;49.976;11.858;2022-11-09T08:43:38;11.03;;;8.73;;
16822;SDS011;8528;49.976;11.858;2022-11-09T08:46:05;16.13;;;9.87;;
16822;SDS011;8528;49.976;11.858;2022-11-09T08:48:32;14.87;;;10.27;;
16822;SDS011;8528;49.976;11.858;2022-11-09T08:51:01;12.83;;;10.20;;
16822;SDS011;8528;49.976;11.858;2022-11-09T08:53:28;14.03;;;9.63;;
16822;SDS011;8528;49.976;11.858;2022-11-09T08:55:55;14.87;;;9.77;;
16822;SDS011;8528;49.976;11.858;2022-11-09T08:58:23;12.03;;;9.77;;
16822;SDS011;8528;49.976;11.858;2022-11-09T09:00:50;10.97;;;9.00;;
16822;SDS011;8528;49.976;11.858;2022-11-09T09:03:17;12.20;;;8.87;;
16822;SDS011;8528;49.976;11.858;2022-11-09T09:05:44;14.33;;;10.23;;
16822;SDS011;8528;49.976;11.858;2022-11-09T09:08:11;13.80;;;11.33;;
16822;SDS011;8528;49.976;11.858;2022-11-09T09:10:40;14.13;;;10.50;;
16822;SDS011;8528;49.976;11.858;2022-11-09T09:13:08;14.37;;;10.80;;
16822;SDS011;8528;49.976;11.858;2022-11-09T09:15:35;11.90;;;9.33;;
16822;SDS011;8528;49.976;11.858;2022-11-09T09:18:02;10.93;;;8.83;;
16822;SDS011;8528;49.976;11.858;2022-11-09T09:20:30;12.23;;;10.27;;
16822;SDS011;8528;49.976;11.858;2022-11-09T09:22:58;12.00;;;9.47;;
16822;SDS011;8528;49.976;11.858;2022-11-09T09:25:26;11.33;;;9.03;;
16822;SDS011;8528;49.976;11.858;2022-11-09T09:27:53;10.90;;;9.17;;
16822;SDS011;8528;49.976;11.858;2022-11-09T09:30:20;11.00;;;8.17;;
16822;SDS011;8528;49.976;11.858;2022-11-09T09:32:47;13.53;;;10.17;;
16822;SDS011;8528;49.976;11.858;2022-11-09T09:35:14;13.23;;;10.43;;
16822;SDS011;8528;49.976;11.858;2022-11-09T09:37:42;10.63;;;8.77;;
16822;SDS011;8528;49.976;11.858;2022-11-09T09:40:19;15.33;;;10.87;;
16822;SDS011;8528;49.976;11.858;2022-11-09T09:43:16;12.03;;;9.90;;
16822;SDS011;8528;49.976;11.858;2022-11-09T09:45:51;11.97;;;8.63;;
16822;SDS011;8528;49.976;11.858;2022-11-09T09:48:25;11.43;;;9.27;;
16822;SDS011;8528;49.976;11.858;2022-11-09T09:51:17;11.60;;;9.30;;
16822;SDS011;8528;49.976;11.858;2022-11-09T09:53:55;13.60;;;10.03;;
16822;SDS011;8528;49.976;11.858;2022-11-09T09:56:27;14.07;;;10.93;;
16822;SDS011;8528;49.976;11.858;2022-11-09T09:59:02;13.40;;;10.60;;
16822;SDS011;8528;49.976;11.858;2022-11-09T10:01:38;16.03;;;11.80;;
16822;SDS011;8528;49.976;11.858;2022-11-09T10:04:19;15.17;;;11.10;;
16822;SDS011;8528;49.976;11.858;2022-11-09T10:09:43;19.43;;;12.77;;
16822;SDS011;8528;49.976;11.858;2022-11-09T10:15:02;9.43;;;8.30;;
16822;SDS011;8528;49.976;11.858;2022-11-09T10:20:36;10.00;;;7.87;;
16822;SDS011;8528;49.976;11.858;2022-11-09T10:26:11;9.43;;;7.57;;
16822;SDS011;8528;49.976;11.858;2022-11-09T10:28:44;11.10;;;8.63;;
16822;SDS011;8528;49.976;11.858;2022-11-09T10:31:38;9.77;;;7.37;;
16822;SDS011;8528;49.976;11.858;2022-11-09T10:34:20;8.83;;;7.93;;
16822;SDS011;8528;49.976;11.858;2022-11-09T10:37:00;7.50;;;6.77;;
16822;SDS011;8528;49.976;11.858;2022-11-09T10:42:53;8.20;;;7.40;;
16822;SDS011;8528;49.976;11.858;2022-11-09T10:45:29;8.63;;;7.73;;
16822;SDS011;8528;49.976;11.858;2022-11-09T10:47:57;9.20;;;8.13;;
16822;SDS011;8528;49.976;11.858;2022-11-09T10:50:34;9.37;;;8.40;;
16822;SDS011;8528;49.976;11.858;2022-11-09T10:53:21;8.50;;;7.70;;
16822;SDS011;8528;49.976;11.858;2022-11-09T10:56:18;9.30;;;8.30;;
16822;SDS011;8528;49.976;11.858;2022-11-09T10:58:48;9.30;;;7.70;;
16822;SDS011;8528;49.976;11.858;2022-11-09T11:01:18;9.17;;;8.03;;
16822;SDS011;8528;49.976;11.858;2022-11-09T11:03:48;8.37;;;7.50;;
16822;SDS011;8528;49.976;11.858;2022-11-09T11:06:17;8.37;;;7.47;;
16822;SDS011;8528;49.976;11.858;2022-11-09T11:08:51;7.90;;;6.60;;
16822;SDS011;8528;49.976;11.858;2022-11-09T11:11:28;8.03;;;7.03;;
16822;SDS011;8528;49.976;11.858;2022-11-09T11:16:47;7.63;;;6.90;;
16822;SDS011;8528;49.976;11.858;2022-11-09T11:30:20;8.77;;;7.80;;
16822;SDS011;8528;49.976;11.858;2022-11-09T11:32:54;10.70;;;9.50;;
16822;SDS011;8528;49.976;11.858;2022-11-09T11:35:37;9.10;;;8.20;;
16822;SDS011;8528;49.976;11.858;2022-11-09T11:38:16;14.73;;;8.80;;
16822;SDS011;8528;49.976;11.858;2022-11-09T11:46:17;8.87;;;7.50;;
16822;SDS011;8528;49.976;11.858;2022-11-09T12:19:59;5.90;;;5.30;;
16822;SDS011;8528;49.976;11.858;2022-11-09T12:25:34;6.37;;;5.77;;
16822;SDS011;8528;49.976;11.858;2022-11-09T12:33:35;6.30;;;5.70;;
16822;SDS011;8528;49.976;11.858;2022-11-09T12:36:16;7.93;;;6.17;;
16822;SDS011;8528;49.976;11.858;2022-11-09T12:42:18;8.67;;;6.30;;
16822;SDS011;8528;49.976;11.858;2022-11-09T12:45:16;8.57;;;6.87;;
16822;SDS011;8528;49.976;11.858;2022-11-09T12:47:59;7.30;;;6.60;;
16822;SDS011;8528;49.976;11.858;2022-11-09T12:50:38;6.73;;;6.03;;
16822;SDS011;8528;49.976;11.858;2022-11-09T12:53:05;6.47;;;5.23;;
16822;SDS011;8528;49.976;11.858;2022-11-09T12:58:17;7.40;;;6.63;;
16822;SDS011;8528;49.976;11.858;2022-11-09T13:00:51;7.00;;;6.33;;
16822;SDS011;8528;49.976;11.858;2022-11-09T13:03:23;7.83;;;6.20;;
16822;SDS011;8528;49.976;11.858;2022-11-09T13:08:38;7.33;;;6.63;;
16822;SDS011;8528;49.976;11.858;2022-11-09T13:11:07;6.83;;;6.13;;
16822;SDS011;8528;49.976;11.858;2022-11-09T13:16:56;9.30;;;8.40;;
16822;SDS011;8528;49.976;11.858;2022-11-09T13:23:02;9.40;;;7.33;;
16822;SDS011;8528;49.976;11.858;2022-11-09T13:30:53;10.83;;;8.90;;
16822;SDS011;8528;49.976;11.858;2022-11-09T13:38:22;11.53;;;8.47;;
16822;SDS011;8528;49.976;11.858;2022-11-09T13:40:52;9.10;;;7.80;;
16822;SDS011;8528;49.976;11.858;2022-11-09T13:48:48;10.00;;;8.27;;
16822;SDS011;8528;49.976;11.858;2022-11-09T13:51:51;10.87;;;8.10;;
16822;SDS011;8528;49.976;11.858;2022-11-09T13:57:00;10.77;;;8.97;;
16822;SDS011;8528;49.976;11.858;2022-11-09T13:59:44;14.10;;;11.00;;
16822;SDS011;8528;49.976;11.858;2022-11-09T14:02:20;11.50;;;8.47;;
16822;SDS011;8528;49.976;11.858;2022-11-09T14:04:48;10.50;;;8.13;;
16822;SDS011;8528;49.976;11.858;2022-11-09T14:07:23;9.97;;;8.60;;
16822;SDS011;8528;49.976;11.858;2022-11-09T14:10:04;11.37;;;7.77;;
16822;SDS011;8528;49.976;11.858;2022-11-09T14:23:39;12.40;;;11.13;;
16822;SDS011;8528;49.976;11.858;2022-11-09T14:26:07;16.10;;;13.40;;
16822;SDS011;8528;49.976;11.858;2022-11-09T14:28:41;11.80;;;10.60;;
16822;SDS011;8528;49.976;11.858;2022-11-09T14:31:20;15.37;;;8.87;;
16822;SDS011;8528;49.976;11.858;2022-11-09T14:33:59;29.70;;;26.60;;
16822;SDS011;8528;49.976;11.858;2022-11-09T14:36:28;26.93;;;24.17;;
16822;SDS011;8528;49.976;11.858;2022-11-09T14:38:59;30.93;;;24.77;;
16822;SDS011;8528;49.976;11.858;2022-11-09T14:41:27;29.03;;;24.77;;
16822;SDS011;8528;49.976;11.858;2022-11-09T14:43:55;23.40;;;21.00;;
16822;SDS011;8528;49.976;11.858;2022-11-09T14:46:26;19.53;;;17.43;;
16822;SDS011;8528;49.976;11.858;2022-11-09T14:48:56;19.53;;;16.43;;
16822;SDS011;8528;49.976;11.858;2022-11-09T14:51:36;17.43;;;14.40;;
16822;SDS011;8528;49.976;11.858;2022-11-09T14:54:06;17.10;;;14.70;;
16822;SDS011;8528;49.976;11.858;2022-11-09T14:56:38;15.83;;;14.00;;
16822;SDS011;8528;49.976;11.858;2022-11-09T14:59:09;13.37;;;11.17;;
16822;SDS011;8528;49.976;11.858;2022-11-09T15:01:39;13.50;;;11.30;;
16822;SDS011;8528;49.976;11.858;2022-11-09T15:06:43;12.10;;;10.33;;
16822;SDS011;8528;49.976;11.858;2022-11-09T15:09:14;12.23;;;10.17;;
16822;SDS011;8528;49.976;11.858;2022-11-09T15:11:47;17.43;;;14.03;;
16822;SDS011;8528;49.976;11.858;2022-11-09T15:16:45;13.20;;;11.80;;
16822;SDS011;8528;49.976;11.858;2022-11-09T15:19:27;22.47;;;17.30;;
16822;SDS011;8528;49.976;11.858;2022-11-09T15:21:57;15.00;;;12.10;;
16822;SDS011;8528;49.976;11.858;2022-11-09T15:24:28;16.47;;;14.17;;
16822;SDS011;8528;49.976;11.858;2022-11-09T15:27:31;23.30;;;20.80;;
16822;SDS011;8528;49.976;11.858;2022-11-09T15:30:00;17.70;;;15.23;;
16822;SDS011;8528;49.976;11.858;2022-11-09T15:32:33;7.20;;;6.20;;
16822;SDS011;8528;49.976;11.858;2022-11-09T15:35:12;6.97;;;5.90;;
16822;SDS011;8528;49.976;11.858;2022-11-09T15:37:47;6.27;;;4.90;;
16822;SDS011;8528;49.976;11.858;2022-11-09T15:40:21;19.17;;;12.57;;
16822;SDS011;8528;49.976;11.858;2022-11-09T15:42:50;14.67;;;12.00;;
16822;SDS011;8528;49.976;11.858;2022-11-09T15:45:18;16.10;;;11.07;;
16822;SDS011;8528;49.976;11.858;2022-11-09T15:47:50;5.17;;;4.53;;
16822;SDS011;8528;49.976;11.858;2022-11-09T15:50:22;8.57;;;7.70;;
16822;SDS011;8528;49.976;11.858;2022-11-09T15:52:51;3.90;;;3.60;;
16822;SDS011;8528;49.976;11.858;2022-11-09T15:55:20;4.97;;;3.40;;
16822;SDS011;8528;49.976;11.858;2022-11-09T15:57:49;4.97;;;4.30;;
16822;SDS011;8528;49.976;11.858;2022-11-09T16:00:20;5.03;;;3.77;;
16822;SDS011;8528;49.976;11.858;2022-11-09T16:02:47;4.93;;;4.43;;
16822;SDS011;8528;49.976;11.858;2022-11-09T16:05:15;8.07;;;7.37;;
16822;SDS011;8528;49.976;11.858;2022-11-09T16:07:48;6.80;;;4.43;;
16822;SDS011;8528;49.976;11.858;2022-11-09T16:10:16;4.10;;;3.70;;
16822;SDS011;8528;49.976;11.858;2022-11-09T16:12:45;4.60;;;4.17;;
16822;SDS011;8528;49.976;11.858;2022-11-09T16:15:12;4.73;;;4.23;;
16822;SDS011;8528;49.976;11.858;2022-11-09T16:17:39;3.83;;;3.10;;
16822;SDS011;8528;49.976;11.858;2022-11-09T16:20:06;4.50;;;4.10;;
16822;SDS011;8528;49.976;11.858;2022-11-09T16:22:33;3.37;;;3.03;;
16822;SDS011;8528;49.976;11.858;2022-11-09T16:25:00;3.43;;;3.13;;
16822;SDS011;8528;49.976;11.858;2022-11-09T16:27:28;4.73;;;3.90;;
16822;SDS011;8528;49.976;11.858;2022-11-09T16:30:15;4.30;;;3.90;;
16822;SDS011;8528;49.976;11.858;2022-11-09T16:32:43;4.70;;;3.47;;
16822;SDS011;8528;49.976;11.858;2022-11-09T16:35:17;4.37;;;3.47;;
16822;SDS011;8528;49.976;11.858;2022-11-09T16:37:56;6.77;;;5.93;;
16822;SDS011;8528;49.976;11.858;2022-11-09T16:40:24;6.13;;;3.93;;
16822;SDS011;8528;49.976;11.858;2022-11-09T16:42:52;6.53;;;4.47;;
16822;SDS011;8528;49.976;11.858;2022-11-09T16:45:19;5.77;;;4.40;;
16822;SDS011;8528;49.976;11.858;2022-11-09T16:47:48;3.90;;;3.57;;
16822;SDS011;8528;49.976;11.858;2022-11-09T16:50:19;7.37;;;6.57;;
16822;SDS011;8528;49.976;11.858;2022-11-09T16:52:46;5.87;;;5.20;;
16822;SDS011;8528;49.976;11.858;2022-11-09T16:55:13;5.50;;;5.00;;
16822;SDS011;8528;49.976;11.858;2022-11-09T16:57:40;7.47;;;5.33;;
16822;SDS011;8528;49.976;11.858;2022-11-09T17:00:07;7.80;;;4.20;;
16822;SDS011;8528;49.976;11.858;2022-11-09T17:02:34;5.53;;;5.00;;
16822;SDS011;8528;49.976;11.858;2022-11-09T17:05:01;8.67;;;7.83;;
16822;SDS011;8528;49.976;11.858;2022-11-09T17:07:28;7.63;;;5.37;;
16822;SDS011;8528;49.976;11.858;2022-11-09T17:09:55;7.77;;;6.20;;